Chacarita, Costa Rica
Current Conditions -  °F | °C
As of 12:00 PM on Thursday 18 Dec 2014 (Local Time) from MROC Reporting Station
Scattered Clouds Scattered Clouds  
Wind Chill: 81°   Ceiling: Unl
Heat Index: 82°   Visibility: 6mi
Dew Point: 63°   Wind: 9mph
Humidity: 54%   Direction: 130°SE
Pressure: 30.02"   Gusts: NA
Location:  9.99°N, 84.78°W
Report Text: MROC 181800Z 13008KT 9999 FEW030 SCT070 27/17 A3002 NOSIG
Loading
Personal Weather Stations






























Interactive Weather Map New forecast layout! Learn more

10-Day Weather Forecast

Advertisements
Track Severe Weather on mobile